Time;durP1;ratioP1;P1;durP2;ratioP2;P2;SDS_P1;SDS_P2;PMS_P1;PMS_P2;Temp;Humidity;BMP_temperature;BMP_pressure;BME280_temperature;BME280_humidity;BME280_pressure;Samples;Min_cycle;Max_cycle;Signal;HPM_P1;HPM_P2
2022/09/21 00:01:08;;;;;;;6.32;2.28;;;37.40;45.30;;;;;;5045410;28;20025;-64
2022/09/21 00:03:35;;;;;;;7.65;2.20;;;37.40;45.20;;;;;;5048271;28;20033;-65
2022/09/21 00:06:04;;;;;;;4.07;1.85;;;37.40;45.50;;;;;;5046634;28;20025;-64
2022/09/21 00:08:30;;;;;;;8.60;2.30;;;37.30;43.90;;;;;;5060933;28;20024;-64
2022/09/21 00:10:56;;;;;;;6.43;1.92;;;37.20;44.00;;;;;;5046664;28;20045;-64
2022/09/21 00:13:24;;;;;;;8.75;1.92;;;37.20;44.10;;;;;;5047766;28;20021;-65
2022/09/21 00:15:51;;;;;;;6.45;2.10;;;37.20;44.30;;;;;;5064802;28;20486;-65
2022/09/21 00:18:17;;;;;;;4.03;1.98;;;37.10;44.10;;;;;;5047626;28;20078;-65
2022/09/21 00:20:46;;;;;;;13.73;2.30;;;37.10;43.50;;;;;;5045651;28;20461;-65
2022/09/21 00:23:12;;;;;;;9.48;1.90;;;37.00;43.30;;;;;;5030591;28;20407;-63
2022/09/21 00:25:38;;;;;;;10.32;1.95;;;36.90;42.60;;;;;;5048297;28;20021;-64
2022/09/21 00:28:05;;;;;;;4.72;1.95;;;36.90;43.00;;;;;;5046826;28;20043;-63
2022/09/21 00:30:31;;;;;;;12.57;2.00;;;36.90;41.00;;;;;;5045957;28;20021;-64
2022/09/21 00:32:58;;;;;;;6.18;1.70;;;36.90;39.70;;;;;;5047859;28;20025;-63
2022/09/21 00:35:24;;;;;;;7.30;1.80;;;36.90;40.20;;;;;;5048451;28;20021;-63
2022/09/21 00:37:51;;;;;;;5.85;2.15;;;36.90;40.30;;;;;;5047834;28;20033;-64
2022/09/21 00:40:17;;;;;;;12.40;2.75;;;36.80;40.10;;;;;;5050679;28;20028;-65
2022/09/21 00:42:43;;;;;;;17.98;3.60;;;36.80;41.60;;;;;;5050398;28;20123;-66
2022/09/21 00:45:30;;;;;;;9.65;2.83;;;36.80;43.40;;;;;;5047413;28;20478;-63
2022/09/21 00:48:03;;;;;;;13.00;3.15;;;36.70;44.50;;;;;;5033022;28;20133;-63
2022/09/21 00:50:29;;;;;;;15.00;3.53;;;36.70;45.00;;;;;;5044937;28;20494;-63
2022/09/21 00:52:57;;;;;;;9.15;3.05;;;36.60;45.10;;;;;;5044496;28;20025;-62
2022/09/21 00:55:41;;;;;;;13.00;2.70;;;36.50;45.60;;;;;;5047944;28;20027;-64
2022/09/21 00:58:17;;;;;;;11.52;2.63;;;36.40;45.10;;;;;;5014391;28;20134;-63
2022/09/21 01:00:43;;;;;;;;;;;36.40;45.30;;;;;;5031897;28;20116;-65
2022/09/21 01:03:12;;;;;;;22.40;2.70;;;36.20;45.20;;;;;;5048491;28;19965;-64
2022/09/21 01:05:38;;;;;;;9.18;2.22;;;36.20;46.20;;;;;;5048122;28;20032;-64
2022/09/21 01:08:08;;;;;;;12.43;2.63;;;36.10;45.50;;;;;;5048179;28;20037;-64
2022/09/21 01:11:00;;;;;;;9.43;2.22;;;36.00;45.40;;;;;;5047297;28;20033;-63
2022/09/21 01:13:48;;;;;;;12.02;2.15;;;36.00;45.40;;;;;;5063553;28;20025;-64
2022/09/21 01:16:23;;;;;;;10.65;2.40;;;35.90;45.10;;;;;;5046924;28;20426;-63
2022/09/21 01:19:21;;;;;;;8.52;2.60;;;35.90;44.90;;;;;;5031523;28;20029;-63
2022/09/21 01:22:03;;;;;;;21.20;2.83;;;35.90;45.20;;;;;;5038724;28;20430;-63
2022/09/21 01:24:53;;;;;;;13.77;2.42;;;35.80;45.60;;;;;;5046759;28;20060;-63
2022/09/21 01:27:47;;;;;;;17.40;3.10;;;35.80;46.20;;;;;;5047153;28;20024;-64
2022/09/21 01:30:17;;;;;;;12.85;3.03;;;35.70;46.80;;;;;;5062918;28;20025;-64
2022/09/21 01:33:07;;;;;;;14.45;3.45;;;35.60;47.40;;;;;;5047153;28;20021;-64
2022/09/21 01:36:00;;;;;;;15.88;2.90;;;35.50;47.90;;;;;;5043368;28;20033;-64
2022/09/21 01:38:35;;;;;;;20.67;3.47;;;35.50;48.90;;;;;;5029279;28;20058;-63
2022/09/21 01:41:05;;;;;;;23.35;3.38;;;35.40;49.50;;;;;;5047409;28;20116;-65
2022/09/21 01:43:37;;;;;;;26.02;3.72;;;35.40;50.10;;;;;;5047131;28;20052;-64
2022/09/21 01:46:08;;;;;;;16.33;3.15;;;35.30;50.10;;;;;;5047159;28;20029;-65
2022/09/21 01:48:40;;;;;;;16.67;3.28;;;35.20;50.00;;;;;;5046534;28;20032;-65
2022/09/21 01:51:10;;;;;;;14.98;3.30;;;35.10;49.50;;;;;;5045937;28;20032;-61
2022/09/21 01:54:09;;;;;;;18.45;3.22;;;35.10;49.50;;;;;;5044796;28;20111;-63
2022/09/21 01:56:50;;;;;;;46.53;4.45;;;35.10;49.30;;;;;;5031730;28;20025;-67
2022/09/21 01:59:28;;;;;;;52.15;4.72;;;35.00;49.50;;;;;;5030624;28;20024;-68
2022/09/21 02:02:13;;;;;;;28.73;4.47;;;34.90;49.50;;;;;;5047464;28;20550;-63
2022/09/21 02:04:40;;;;;;;44.28;7.47;;;34.80;48.60;;;;;;5047989;28;20061;-64
2022/09/21 02:07:07;;;;;;;59.60;11.65;;;34.80;48.40;;;;;;5051865;28;20029;-65
2022/09/21 02:09:36;;;;;;;46.78;9.25;;;34.70;48.90;;;;;;5050751;28;20044;-64
2022/09/21 02:12:04;;;;;;;41.45;7.15;;;34.70;49.20;;;;;;5049950;28;20049;-65
2022/09/21 02:14:32;;;;;;;39.00;5.65;;;34.70;49.90;;;;;;5050303;28;20021;-63
2022/09/21 02:17:20;;;;;;;39.15;5.75;;;34.60;50.20;;;;;;5047802;28;20214;-64
2022/09/21 02:20:04;;;;;;;34.85;3.85;;;34.60;51.00;;;;;;5032073;28;20024;-65
2022/09/21 02:22:40;;;;;;;26.67;4.47;;;34.50;52.00;;;;;;5047967;28;20136;-67
2022/09/21 02:25:20;;;;;;;34.08;5.05;;;34.50;52.30;;;;;;5048325;28;20021;-62
2022/09/21 02:27:49;;;;;;;26.17;4.70;;;34.40;53.10;;;;;;5045397;28;20503;-66
2022/09/21 02:30:22;;;;;;;24.92;4.80;;;34.30;53.50;;;;;;5048497;28;20783;-65
2022/09/21 02:33:00;;;;;;;37.65;5.88;;;34.30;53.50;;;;;;5050565;28;20025;-64
2022/09/21 02:35:45;;;;;;;30.80;8.00;;;34.30;53.60;;;;;;5050206;28;20430;-65
2022/09/21 02:38:30;;;;;;;90.13;34.65;;;34.20;53.70;;;;;;5049449;28;20364;-68
2022/09/21 02:41:23;;;;;;;25.65;4.70;;;34.20;54.00;;;;;;5050558;28;20025;-64
2022/09/21 02:44:17;;;;;;;60.83;11.82;;;34.20;53.90;;;;;;5050266;28;20086;-65
2022/09/21 02:46:54;;;;;;;31.38;5.88;;;34.10;54.00;;;;;;5025776;28;20090;-65
2022/09/21 02:49:34;;;;;;;81.05;12.63;;;34.00;54.10;;;;;;5050998;28;20024;-64
2022/09/21 02:52:07;;;;;;;83.00;51.97;;;33.90;54.00;;;;;;5047210;28;20040;-66
2022/09/21 02:54:35;;;;;;;91.28;17.75;;;33.90;54.40;;;;;;5049668;28;20027;-62
2022/09/21 02:57:03;;;;;;;165.35;93.45;;;33.90;55.00;;;;;;5049382;28;20451;-65
2022/09/21 02:59:30;;;;;;;20.90;5.70;;;33.80;55.30;;;;;;5049269;28;20502;-66
2022/09/21 03:01:56;;;;;;;32.80;5.20;;;33.80;55.40;;;;;;5032795;28;20029;-67
2022/09/21 03:04:24;;;;;;;35.35;5.40;;;33.70;55.30;;;;;;5031505;28;20043;-63
2022/09/21 03:06:50;;;;;;;23.98;4.93;;;33.60;55.30;;;;;;5032870;28;20075;-63
2022/09/21 03:09:17;;;;;;;32.97;5.80;;;33.60;55.20;;;;;;5033018;28;20079;-68
2022/09/21 03:11:43;;;;;;;54.55;6.80;;;33.60;55.30;;;;;;5048833;28;20506;-65
2022/09/21 03:14:10;;;;;;;32.97;4.85;;;33.50;55.30;;;;;;5048213;28;20054;-66
2022/09/21 03:16:37;;;;;;;71.80;38.10;;;33.50;55.10;;;;;;5047162;28;20111;-64
2022/09/21 03:19:04;;;;;;;27.27;8.18;;;33.40;55.30;;;;;;5031960;28;20037;-63
2022/09/21 03:21:31;;;;;;;31.02;7.13;;;33.40;55.50;;;;;;5047730;28;20021;-65
2022/09/21 03:23:57;;;;;;;71.10;7.03;;;33.30;55.80;;;;;;5050229;28;20020;-65
2022/09/21 03:26:24;;;;;;;16.45;3.97;;;33.20;56.40;;;;;;5048773;28;20083;-63
2022/09/21 03:28:53;;;;;;;16.10;3.67;;;33.10;55.70;;;;;;5048099;28;20108;-63
2022/09/21 03:31:19;;;;;;;32.05;5.05;;;33.10;55.90;;;;;;5047994;28;20029;-71
2022/09/21 03:33:46;;;;;;;21.80;4.53;;;32.90;56.10;;;;;;5049660;28;20028;-62
2022/09/21 03:36:13;;;;;;;25.45;4.95;;;32.90;56.00;;;;;;5031260;28;20840;-62
2022/09/21 03:38:39;;;;;;;18.45;4.25;;;32.90;56.00;;;;;;5047194;28;20090;-62
2022/09/21 03:41:06;;;;;;;26.42;5.03;;;32.90;55.70;;;;;;5027978;28;20036;-61
2022/09/21 03:43:32;;;;;;;23.98;4.68;;;32.90;55.60;;;;;;5030334;28;20086;-62
2022/09/21 03:45:59;;;;;;;27.65;5.38;;;32.80;55.60;;;;;;5047897;28;20112;-62
2022/09/21 03:48:25;;;;;;;17.58;4.00;;;32.80;55.40;;;;;;5047137;28;20025;-65
2022/09/21 03:50:51;;;;;;;30.75;4.90;;;32.80;55.50;;;;;;5047553;28;20100;-63
2022/09/21 03:53:18;;;;;;;26.50;4.65;;;32.70;55.50;;;;;;5048078;28;20021;-65
2022/09/21 03:55:44;;;;;;;27.85;4.13;;;32.70;55.60;;;;;;5048835;28;20037;-61
2022/09/21 03:58:11;;;;;;;26.65;4.00;;;32.70;55.60;;;;;;5055247;28;20029;-65
2022/09/21 04:00:38;;;;;;;20.77;3.83;;;32.70;55.80;;;;;;5047971;28;20391;-64
2022/09/21 04:03:05;;;;;;;21.20;3.92;;;32.60;56.60;;;;;;5049633;28;20115;-62
2022/09/21 04:05:31;;;;;;;15.50;3.13;;;32.50;57.00;;;;;;5048219;28;21010;-62
2022/09/21 04:07:57;;;;;;;12.48;3.20;;;32.50;57.40;;;;;;5048538;28;20402;-65
2022/09/21 04:10:28;;;;;;;14.65;2.90;;;32.40;57.70;;;;;;5047098;28;20037;-62
2022/09/21 04:12:59;;;;;;;13.80;3.05;;;32.40;58.10;;;;;;5047842;28;20056;-62
2022/09/21 04:15:26;;;;;;;14.35;3.50;;;32.30;58.30;;;;;;5032185;28;20032;-61
2022/09/21 04:17:53;;;;;;;21.40;3.40;;;32.30;58.50;;;;;;5046939;28;20037;-65
2022/09/21 04:20:20;;;;;;;14.60;3.20;;;32.30;58.50;;;;;;5047537;28;20036;-65
2022/09/21 04:22:47;;;;;;;18.33;3.58;;;32.30;58.70;;;;;;5049751;28;20028;-62
2022/09/21 04:25:14;;;;;;;15.23;4.05;;;32.20;59.00;;;;;;5034500;28;20025;-61
2022/09/21 04:27:41;;;;;;;13.93;3.58;;;32.20;59.30;;;;;;5047782;28;20131;-61
2022/09/21 04:30:09;;;;;;;21.73;4.10;;;32.10;59.30;;;;;;5030819;28;20021;-61
2022/09/21 04:32:36;;;;;;;17.45;4.03;;;32.10;59.60;;;;;;5048761;28;20471;-64
2022/09/21 04:35:02;;;;;;;22.83;3.70;;;32.00;60.00;;;;;;5047732;28;20025;-63
2022/09/21 04:37:29;;;;;;;29.20;4.70;;;32.00;60.30;;;;;;5049978;28;20029;-63
2022/09/21 04:39:55;;;;;;;26.27;5.40;;;32.00;60.40;;;;;;5047164;28;20029;-62
2022/09/21 04:42:22;;;;;;;21.73;5.25;;;32.00;60.80;;;;;;5046846;28;20048;-65
2022/09/21 04:44:48;;;;;;;24.45;4.43;;;31.90;61.10;;;;;;5045218;28;20025;-63
2022/09/21 04:47:15;;;;;;;22.05;4.15;;;31.80;61.40;;;;;;5046338;28;20132;-63
2022/09/21 04:49:41;;;;;;;17.33;4.35;;;31.80;61.90;;;;;;5049327;28;20090;-63
2022/09/21 04:52:07;;;;;;;27.27;3.90;;;31.80;62.40;;;;;;5047643;28;20057;-63
2022/09/21 04:54:34;;;;;;;25.50;4.25;;;31.80;62.70;;;;;;5046983;28;20414;-61
2022/09/21 04:57:00;;;;;;;18.63;4.25;;;31.70;62.90;;;;;;5030358;28;20384;-67
2022/09/21 04:59:27;;;;;;;34.05;5.10;;;31.70;63.30;;;;;;5049545;28;20033;-62
2022/09/21 05:01:53;;;;;;;23.00;4.50;;;31.70;63.50;;;;;;5048669;28;20039;-61
2022/09/21 05:04:22;;;;;;;18.50;3.88;;;31.70;63.80;;;;;;5048566;28;20030;-66
2022/09/21 05:06:48;;;;;;;16.45;4.45;;;31.60;64.30;;;;;;5052024;28;20029;-65
2022/09/21 05:12:01;;;;;;;27.25;4.78;;;31.50;64.80;;;;;;5050171;28;20044;-64
2022/09/21 05:14:28;;;;;;;12.52;3.50;;;31.50;65.20;;;;;;5030837;28;20024;-65
2022/09/21 05:16:54;;;;;;;19.85;3.95;;;31.40;65.70;;;;;;5047600;28;20052;-60
2022/09/21 05:19:21;;;;;;;15.90;4.07;;;31.40;65.90;;;;;;5047554;28;20036;-61
2022/09/21 05:21:48;;;;;;;18.88;3.58;;;31.30;66.30;;;;;;5047032;28;20033;-64
2022/09/21 05:24:14;;;;;;;16.70;3.97;;;31.30;66.40;;;;;;5045865;28;20483;-63
2022/09/21 05:26:40;;;;;;;22.48;3.83;;;31.30;66.60;;;;;;5047959;28;21000;-62
2022/09/21 05:29:08;;;;;;;16.80;4.30;;;31.30;67.00;;;;;;5046801;28;20032;-66
2022/09/21 05:31:44;;;;;;;18.38;3.72;;;31.20;67.40;;;;;;5049726;28;20066;-63
2022/09/21 05:34:13;;;;;;;22.17;3.83;;;31.20;67.80;;;;;;5060356;28;20017;-62
2022/09/21 05:37:00;;;;;;;18.80;4.00;;;31.20;67.70;;;;;;5047690;28;20261;-63
2022/09/21 05:39:26;;;;;;;;;;;31.30;68.10;;;;;;5033263;28;20027;-65
2022/09/21 05:41:53;;;;;;;21.03;3.80;;;31.20;68.10;;;;;;5053028;28;19908;-62
2022/09/21 05:44:20;;;;;;;14.57;3.25;;;31.30;68.40;;;;;;5033425;28;20025;-62
2022/09/21 05:46:49;;;;;;;14.40;3.83;;;31.20;68.70;;;;;;5060023;28;20028;-65
2022/09/21 05:49:22;;;;;;;11.20;3.33;;;31.20;68.90;;;;;;5059590;28;20025;-65
2022/09/21 05:52:21;;;;;;;10.80;3.20;;;31.20;69.40;;;;;;5053010;28;20017;-64
2022/09/21 05:55:02;;;;;;;7.43;2.70;;;31.10;69.80;;;;;;5011638;28;20572;-64
2022/09/21 05:57:47;;;;;;;11.80;3.65;;;31.10;70.50;;;;;;4992773;28;20026;-65
2022/09/21 06:00:18;;;;;;;10.10;2.78;;;31.00;70.70;;;;;;5010167;28;20034;-65
2022/09/21 06:03:07;;;;;;;10.50;3.13;;;31.10;71.00;;;;;;4993258;28;20088;-64
2022/09/21 06:05:34;;;;;;;20.63;3.83;;;31.20;71.00;;;;;;5009364;28;20034;-65
2022/09/21 06:10:17;;;;;;;13.63;4.43;;;31.20;70.80;;;;;;5181606;27;20434;-62
2022/09/21 06:12:43;;;;;;;11.45;3.58;;;31.20;71.40;;;;;;5164525;27;20324;-60
2022/09/21 06:15:14;;;;;;;11.27;3.00;;;31.20;71.50;;;;;;5164645;27;20044;-62
2022/09/21 06:17:41;;;;;;;15.32;3.92;;;31.20;71.60;;;;;;5130870;27;20071;-64
2022/09/21 06:20:07;;;;;;;14.52;4.00;;;31.20;71.60;;;;;;5144262;27;20055;-61
2022/09/21 06:22:34;;;;;;;12.63;3.60;;;31.20;71.80;;;;;;5131673;27;20043;-62
2022/09/21 06:25:01;;;;;;;20.98;3.95;;;31.30;71.90;;;;;;5166385;27;20481;-59
2022/09/21 06:27:28;;;;;;;12.75;3.72;;;31.20;71.90;;;;;;5165586;27;20034;-62
2022/09/21 06:29:55;;;;;;;12.38;3.80;;;31.20;72.20;;;;;;5165914;27;20551;-62
2022/09/21 06:32:21;;;;;;;16.80;4.18;;;31.30;72.30;;;;;;5148150;27;20043;-60
2022/09/21 06:34:48;;;;;;;10.48;3.90;;;31.20;72.40;;;;;;5131957;27;20039;-62
2022/09/21 06:37:15;;;;;;;12.70;3.83;;;31.20;72.50;;;;;;5162673;27;20138;-61
2022/09/21 06:39:41;;;;;;;16.08;4.00;;;31.20;72.70;;;;;;5163937;27;20063;-63
2022/09/21 06:42:08;;;;;;;18.42;5.32;;;31.20;73.10;;;;;;5149584;27;20157;-62
2022/09/21 06:44:34;;;;;;;14.65;3.78;;;31.20;73.40;;;;;;5128378;27;20044;-61
2022/09/21 06:47:00;;;;;;;10.00;3.10;;;31.20;73.20;;;;;;5147854;27;20047;-64
2022/09/21 06:49:27;;;;;;;14.02;3.40;;;31.20;73.40;;;;;;5163912;27;20438;-61
2022/09/21 06:51:54;;;;;;;12.20;3.60;;;31.20;73.50;;;;;;5148024;27;20894;-61
2022/09/21 06:54:21;;;;;;;12.02;3.50;;;31.10;73.60;;;;;;5148797;27;20034;-62
2022/09/21 06:56:47;;;;;;;13.18;2.97;;;31.10;73.40;;;;;;5148496;27;20045;-61
2022/09/21 06:59:13;;;;;;;12.15;2.83;;;31.20;73.40;;;;;;5147857;27;20495;-60
2022/09/21 07:01:40;;;;;;;12.48;2.83;;;31.10;73.40;;;;;;5147692;27;20027;-62
2022/09/21 07:04:08;;;;;;;18.65;3.78;;;31.10;73.20;;;;;;5129829;27;20731;-62
2022/09/21 07:06:34;;;;;;;14.70;2.53;;;31.10;73.20;;;;;;5129651;27;20136;-61
2022/09/21 07:09:01;;;;;;;7.47;2.83;;;31.10;73.30;;;;;;5148356;27;20510;-61
2022/09/21 07:11:28;;;;;;;12.68;2.90;;;31.10;73.40;;;;;;5141925;27;20064;-61
2022/09/21 07:13:55;;;;;;;9.77;2.33;;;31.00;73.10;;;;;;5161937;27;20036;-62
2022/09/21 07:16:22;;;;;;;15.98;2.92;;;31.00;73.20;;;;;;5164382;27;20126;-62
2022/09/21 07:18:48;;;;;;;8.43;2.67;;;31.00;73.20;;;;;;5147816;27;20042;-61
2022/09/21 07:21:15;;;;;;;9.13;2.83;;;31.00;74.00;;;;;;5152011;27;20121;-61
2022/09/21 07:23:42;;;;;;;8.20;2.55;;;31.00;74.40;;;;;;5115801;27;21011;-62
2022/09/21 07:26:11;;;;;;;9.57;2.63;;;31.00;74.30;;;;;;5133646;27;20032;-61
2022/09/21 07:28:37;;;;;;;7.03;2.95;;;30.90;74.60;;;;;;5131971;27;20050;-61
2022/09/21 07:31:15;;;;;;;10.77;2.83;;;30.80;74.40;;;;;;5132389;27;20037;-63
2022/09/21 07:33:45;;;;;;;13.07;2.83;;;30.80;74.60;;;;;;5149898;27;20040;-61
2022/09/21 07:36:12;;;;;;;12.50;2.55;;;30.90;74.90;;;;;;5150576;27;20027;-62
2022/09/21 07:38:40;;;;;;;7.45;2.67;;;30.90;75.10;;;;;;5132823;27;20061;-61
2022/09/21 07:41:08;;;;;;;10.20;2.90;;;30.90;74.90;;;;;;5149813;27;20048;-61
2022/09/21 07:43:38;;;;;;;10.18;2.80;;;30.80;75.10;;;;;;5116254;27;20131;-62
2022/09/21 07:46:05;;;;;;;12.88;3.35;;;30.80;75.00;;;;;;5134460;27;20059;-62
2022/09/21 07:48:32;;;;;;;9.10;3.42;;;30.80;74.60;;;;;;5131698;27;20054;-61
2022/09/21 07:51:06;;;;;;;13.13;3.53;;;30.80;74.70;;;;;;5131972;27;20027;-61
2022/09/21 07:53:34;;;;;;;9.40;3.00;;;30.80;75.60;;;;;;5130223;27;20025;-63
2022/09/21 07:56:08;;;;;;;10.43;3.38;;;30.80;74.80;;;;;;5116518;27;20039;-62
2022/09/21 08:01:22;;;;;;;15.98;3.60;;;30.70;75.60;;;;;;5133923;27;20048;-61
2022/09/21 08:03:50;;;;;;;10.43;3.25;;;30.70;76.40;;;;;;5132262;27;20152;-61
2022/09/21 08:06:17;;;;;;;18.25;3.58;;;30.70;75.80;;;;;;5134295;27;20100;-62
2022/09/21 08:08:46;;;;;;;16.65;3.60;;;30.70;76.20;;;;;;5132971;27;20080;-62
2022/09/21 08:11:14;;;;;;;19.38;4.47;;;30.50;76.30;;;;;;5133156;27;20444;-61
2022/09/21 08:13:41;;;;;;;13.32;3.67;;;30.40;76.50;;;;;;5115068;27;20048;-62
2022/09/21 08:16:08;;;;;;;13.80;3.72;;;30.40;77.00;;;;;;5133916;27;20054;-62
2022/09/21 08:18:39;;;;;;;9.60;3.70;;;30.40;77.00;;;;;;5132146;27;20038;-61
2022/09/21 08:21:07;;;;;;;12.48;4.10;;;30.40;77.00;;;;;;5128444;27;20179;-62
2022/09/21 08:23:37;;;;;;;10.57;3.47;;;30.40;77.20;;;;;;5131562;27;20046;-63
2022/09/21 08:26:06;;;;;;;15.93;3.42;;;30.50;77.30;;;;;;5148810;27;20031;-63
2022/09/21 08:28:34;;;;;;;8.82;3.65;;;30.50;77.20;;;;;;5131431;27;20048;-62
2022/09/21 08:31:09;;;;;;;16.50;3.72;;;30.50;77.50;;;;;;5117260;27;20048;-60
2022/09/21 08:33:35;;;;;;;12.05;3.25;;;30.50;77.80;;;;;;5132028;27;20050;-61
2022/09/21 08:36:03;;;;;;;16.35;3.25;;;30.40;79.60;;;;;;5133644;27;20087;-60
2022/09/21 08:38:38;;;;;;;8.85;2.97;;;30.30;83.10;;;;;;5132656;27;20060;-61
2022/09/21 08:41:32;;;;;;;8.13;3.10;;;30.30;84.80;;;;;;5132197;27;20186;-61
2022/09/21 08:44:10;;;;;;;17.08;3.72;;;30.30;85.60;;;;;;5130779;27;21272;-62
2022/09/21 08:46:37;;;;;;;8.43;3.65;;;30.20;86.20;;;;;;5132276;27;20045;-62
2022/09/21 08:49:21;;;;;;;13.55;3.70;;;30.30;86.50;;;;;;5132488;27;20381;-61
2022/09/21 08:51:59;;;;;;;12.32;4.10;;;30.30;86.70;;;;;;5134409;27;20050;-61
2022/09/21 08:54:43;;;;;;;12.93;4.18;;;30.40;87.20;;;;;;5132795;27;20057;-63
2022/09/21 08:57:14;;;;;;;9.50;3.88;;;30.40;87.30;;;;;;5132042;27;20039;-62
2022/09/21 08:59:48;;;;;;;9.52;3.33;;;30.30;87.70;;;;;;5131800;27;20042;-62
2022/09/21 09:02:39;;;;;;;9.52;3.50;;;30.20;87.20;;;;;;5114653;27;20053;-62
2022/09/21 09:05:17;;;;;;;8.07;3.38;;;30.20;87.70;;;;;;5113953;27;20082;-62
2022/09/21 09:08:08;;;;;;;12.15;3.50;;;30.20;87.70;;;;;;5129369;27;20050;-62
2022/09/21 09:10:41;;;;;;;10.07;3.13;;;30.20;88.00;;;;;;5132040;27;20058;-64
2022/09/21 09:13:38;;;;;;;10.18;3.10;;;30.10;88.50;;;;;;5148661;27;20125;-63
2022/09/21 09:16:28;;;;;;;9.60;3.83;;;30.10;88.60;;;;;;5130751;27;20493;-62
2022/09/21 09:19:07;;;;;;;12.10;3.28;;;30.10;88.90;;;;;;5131380;27;20060;-61
2022/09/21 09:21:39;;;;;;;7.45;3.35;;;30.00;89.50;;;;;;5128792;27;20481;-61
2022/09/21 09:24:22;;;;;;;7.95;3.00;;;30.00;90.10;;;;;;5130596;27;20415;-62
2022/09/21 09:26:55;;;;;;;11.45;3.63;;;30.00;90.30;;;;;;5130732;27;20046;-61
2022/09/21 09:29:44;;;;;;;11.77;3.58;;;29.90;90.80;;;;;;5114215;27;20081;-64
2022/09/21 09:32:14;;;;;;;12.82;3.90;;;29.90;91.10;;;;;;5148474;27;20158;-62
2022/09/21 09:34:56;;;;;;;9.02;3.47;;;29.80;91.50;;;;;;5131886;27;20057;-62
2022/09/21 09:37:29;;;;;;;11.57;3.83;;;29.80;92.00;;;;;;5146854;27;20039;-61
2022/09/21 09:39:59;;;;;;;10.95;3.30;;;29.60;92.50;;;;;;5113670;27;20219;-62
2022/09/21 09:42:46;;;;;;;12.80;4.18;;;29.60;92.70;;;;;;5128795;27;20138;-62
2022/09/21 09:45:33;;;;;;;15.40;4.43;;;29.50;92.70;;;;;;5130025;27;20060;-63
2022/09/21 09:48:04;;;;;;;20.17;4.70;;;29.50;93.20;;;;;;5112756;27;20489;-62
2022/09/21 09:50:36;;;;;;;12.75;4.22;;;29.40;93.50;;;;;;5130120;27;20298;-59
2022/09/21 09:53:05;;;;;;;16.35;4.47;;;29.40;94.20;;;;;;5097607;27;20145;-60
2022/09/21 09:55:59;;;;;;;15.40;4.35;;;29.40;94.50;;;;;;5130033;27;20419;-61
2022/09/21 09:58:51;;;;;;;9.27;4.15;;;29.40;94.70;;;;;;5130676;27;20057;-59
2022/09/21 10:01:38;;;;;;;12.90;4.03;;;29.40;95.30;;;;;;5130233;27;20127;-61
2022/09/21 10:04:10;;;;;;;14.95;4.10;;;29.40;95.40;;;;;;5131133;27;20053;-62
2022/09/21 10:06:38;;;;;;;12.98;3.78;;;29.30;95.70;;;;;;5130867;27;20046;-61
2022/09/21 10:09:31;;;;;;;14.40;3.88;;;29.30;95.90;;;;;;5147970;27;20080;-62
2022/09/21 10:12:14;;;;;;;13.10;3.55;;;29.30;96.00;;;;;;5114112;27;20138;-61
2022/09/21 10:14:50;;;;;;;12.50;3.83;;;29.30;95.90;;;;;;5128416;27;20990;-61
2022/09/21 10:17:18;;;;;;;7.88;4.00;;;29.30;96.10;;;;;;5116638;27;20439;-61
2022/09/21 10:19:45;;;;;;;12.00;4.05;;;29.30;96.50;;;;;;5130581;27;20543;-60
2022/09/21 10:22:19;;;;;;;10.75;3.38;;;29.30;96.80;;;;;;5109571;27;20052;-62
2022/09/21 10:24:53;;;;;;;8.93;3.67;;;29.30;97.00;;;;;;5115348;27;20050;-61
2022/09/21 10:27:29;;;;;;;12.98;3.95;;;29.30;97.30;;;;;;5113123;27;20066;-61
2022/09/21 10:29:56;;;;;;;13.55;3.70;;;29.30;97.50;;;;;;5128147;27;20064;-61
2022/09/21 10:32:25;;;;;;;7.68;3.42;;;29.20;97.70;;;;;;5148040;27;20096;-61
2022/09/21 10:35:07;;;;;;;12.82;3.40;;;29.30;98.20;;;;;;5114267;27;20613;-61
2022/09/21 10:37:53;;;;;;;12.15;3.55;;;29.30;98.60;;;;;;5129866;27;20163;-61
2022/09/21 10:40:19;;;;;;;17.90;3.88;;;29.30;98.50;;;;;;5131038;27;20036;-62
2022/09/21 10:42:49;;;;;;;12.10;3.55;;;29.20;99.00;;;;;;5148596;27;20115;-60
2022/09/21 10:45:16;;;;;;;12.70;3.70;;;29.20;98.90;;;;;;5129512;27;20385;-60
2022/09/21 10:47:52;;;;;;;9.38;3.20;;;29.30;98.90;;;;;;5131075;27;20046;-62
2022/09/21 10:50:39;;;;;;;10.80;3.30;;;29.30;99.00;;;;;;5129291;27;20042;-61
2022/09/21 10:53:08;;;;;;;9.23;3.13;;;29.30;99.40;;;;;;5128723;27;20557;-62
2022/09/21 10:55:41;;;;;;;8.73;3.58;;;29.30;99.70;;;;;;5130697;27;20048;-60
2022/09/21 10:58:12;;;;;;;19.38;4.35;;;29.30;99.80;;;;;;5132766;27;20475;-61
2022/09/21 11:00:50;;;;;;;12.43;3.95;;;29.30;99.70;;;;;;5115819;27;21298;-60
2022/09/21 11:03:40;;;;;;;11.75;4.25;;;29.40;99.90;;;;;;5117258;27;20142;-60
2022/09/21 11:06:29;;;;;;;11.68;3.80;;;29.40;99.90;;;;;;5132129;27;20045;-60
2022/09/21 11:09:19;;;;;;;15.18;3.80;;;29.20;99.90;;;;;;5134104;27;20113;-60
2022/09/21 11:12:15;;;;;;;10.77;3.85;;;29.30;99.90;;;;;;5133418;27;20041;-60
2022/09/21 11:14:53;;;;;;;16.05;4.82;;;29.30;99.90;;;;;;5132218;27;20128;-62
2022/09/21 11:17:22;;;;;;;15.18;5.00;;;29.30;99.90;;;;;;5133218;27;20108;-60
2022/09/21 11:20:20;;;;;;;12.02;4.57;;;29.20;99.90;;;;;;5132654;27;20159;-61
2022/09/21 11:23:03;;;;;;;20.70;4.97;;;29.20;99.90;;;;;;5131805;27;20124;-59
2022/09/21 11:25:47;;;;;;;13.43;4.60;;;29.20;99.90;;;;;;5130878;27;20144;-60
2022/09/21 11:28:21;;;;;;;10.85;4.30;;;29.20;99.90;;;;;;5148347;27;20058;-61
2022/09/21 11:31:08;;;;;;;17.08;4.72;;;29.20;99.90;;;;;;5129773;27;20124;-61
2022/09/21 11:33:48;;;;;;;15.68;5.22;;;29.10;99.90;;;;;;5148484;27;20128;-62
2022/09/21 11:36:33;;;;;;;10.63;4.30;;;29.10;99.90;;;;;;5117619;27;20524;-59
2022/09/21 11:39:18;;;;;;;14.10;3.83;;;29.10;99.90;;;;;;5134142;27;20131;-60
2022/09/21 11:42:10;;;;;;;10.52;4.05;;;29.10;99.90;;;;;;5116556;27;20101;-61
2022/09/21 11:45:00;;;;;;;13.75;4.80;;;29.10;99.90;;;;;;5133330;27;20041;-60
2022/09/21 11:47:54;;;;;;;12.77;4.22;;;29.20;99.90;;;;;;5132101;27;20047;-60
2022/09/21 11:50:26;;;;;;;11.57;3.90;;;29.20;99.90;;;;;;5150531;27;20065;-61
2022/09/21 11:53:15;;;;;;;14.20;4.25;;;29.20;99.90;;;;;;5130905;27;20439;-61
2022/09/21 11:56:32;;;;;;;10.75;3.90;;;29.20;99.90;;;;;;5150526;27;20125;-61
2022/09/21 11:59:28;;;;;;;16.58;4.43;;;29.20;99.90;;;;;;5126106;27;20051;-61
2022/09/21 12:02:04;;;;;;;16.75;4.20;;;29.20;99.90;;;;;;5131566;27;20052;-61
2022/09/21 12:05:08;;;;;;;19.63;3.90;;;29.20;99.90;;;;;;5116168;27;20051;-60
2022/09/21 12:07:57;;;;;;;14.43;3.80;;;29.20;99.90;;;;;;5117765;27;20054;-61
2022/09/21 12:10:41;;;;;;;9.68;3.80;;;29.20;99.90;;;;;;5131697;27;20085;-62
2022/09/21 12:13:11;;;;;;;15.55;4.25;;;29.20;99.90;;;;;;5132841;27;20115;-61
2022/09/21 12:16:10;;;;;;;18.27;4.45;;;29.30;99.90;;;;;;5150123;27;20035;-61
2022/09/21 12:19:03;;;;;;;15.52;4.85;;;29.30;99.90;;;;;;5132584;27;20501;-61
2022/09/21 12:21:43;;;;;;;12.85;4.72;;;29.30;99.90;;;;;;5114606;27;20496;-61
2022/09/21 12:24:25;;;;;;;14.50;4.40;;;29.30;99.90;;;;;;5117794;27;20082;-64
2022/09/21 12:27:00;;;;;;;15.80;4.75;;;29.20;99.90;;;;;;5127812;27;20045;-60
2022/09/21 12:29:43;;;;;;;18.63;4.53;;;29.30;99.90;;;;;;5132677;27;20066;-61
2022/09/21 12:32:35;;;;;;;15.73;4.25;;;29.30;99.90;;;;;;5131657;27;20091;-64
2022/09/21 12:35:07;;;;;;;21.17;5.05;;;29.30;99.90;;;;;;5129583;27;20539;-60
2022/09/21 12:37:38;;;;;;;14.82;4.22;;;29.30;99.90;;;;;;5131573;27;20075;-60
2022/09/21 12:40:15;;;;;;;14.75;4.97;;;29.30;99.90;;;;;;5131230;27;20112;-60
2022/09/21 12:43:26;;;;;;;17.25;3.92;;;29.40;99.90;;;;;;5133784;27;20050;-61
2022/09/21 12:46:00;;;;;;;16.33;4.68;;;29.30;99.90;;;;;;5147990;27;20039;-59
2022/09/21 12:48:37;;;;;;;16.10;4.55;;;29.40;99.90;;;;;;5149559;27;20161;-60
2022/09/21 12:51:24;;;;;;;17.52;4.65;;;29.40;99.90;;;;;;5130498;27;20592;-60
2022/09/21 12:53:55;;;;;;;;;;;29.40;99.90;;;;;;5148082;27;20436;-62
2022/09/21 12:56:28;;;;;;;16.63;3.92;;;29.40;99.90;;;;;;5132354;27;19949;-63
2022/09/21 12:59:06;;;;;;;12.05;4.18;;;29.50;99.90;;;;;;5131930;27;20063;-61
2022/09/21 13:01:32;;;;;;;16.00;4.15;;;29.50;99.90;;;;;;5147394;27;20137;-61
2022/09/21 13:04:17;;;;;;;16.63;4.90;;;29.40;99.90;;;;;;5132054;27;20069;-62
2022/09/21 13:07:01;;;;;;;13.93;4.85;;;29.50;99.90;;;;;;5146678;27;20056;-61
2022/09/21 13:09:30;;;;;;;15.88;4.68;;;29.50;99.90;;;;;;5129703;27;20080;-60
2022/09/21 13:12:05;;;;;;;16.70;4.65;;;29.50;99.90;;;;;;5114330;27;20087;-60
2022/09/21 13:14:40;;;;;;;17.58;5.05;;;29.50;99.90;;;;;;5114798;27;20039;-61
2022/09/21 13:17:22;;;;;;;21.52;4.93;;;29.50;99.90;;;;;;5131248;27;20571;-60
2022/09/21 13:20:15;;;;;;;21.58;5.15;;;29.50;99.90;;;;;;5132044;27;20092;-60